Time;durP1;ratioP1;P1;durP2;ratioP2;P2;SDS_P1;SDS_P2;PMS_P1;PMS_P2;Temp;Humidity;BMP_temperature;BMP_pressure;BME280_temperature;BME280_humidity;BME280_pressure;Samples;Min_cycle;Max_cycle;Signal;HPM_P1;HPM_P2
2022/03/10 00:01:10;;;;;;;32.03;18.25;;;;;;;2.00;66.43;100283.09;4952408;28;20036;-76
2022/03/10 00:03:35;;;;;;;30.77;19.42;;;;;;;1.94;67.03;100280.50;4951936;28;20094;-76
2022/03/10 00:06:00;;;;;;;31.58;21.02;;;;;;;1.87;67.04;100277.09;4952196;28;20464;-77
2022/03/10 00:08:26;;;;;;;33.03;20.00;;;;;;;1.84;67.09;100284.91;4951919;28;20043;-75
2022/03/10 00:10:51;;;;;;;31.55;20.33;;;;;;;1.77;67.25;100277.16;4951164;28;20036;-74
2022/03/10 00:13:16;;;;;;;31.65;19.95;;;;;;;1.68;67.55;100280.69;4950706;28;20139;-75
2022/03/10 00:15:42;;;;;;;34.92;19.42;;;;;;;1.60;67.81;100285.03;4952014;28;20427;-75
2022/03/10 00:18:08;;;;;;;35.15;21.63;;;;;;;1.54;68.03;100282.47;4951963;28;20114;-75
2022/03/10 00:20:33;;;;;;;29.73;20.52;;;;;;;1.45;67.93;100285.94;4951020;28;20046;-75
2022/03/10 00:22:58;;;;;;;30.77;20.30;;;;;;;1.40;68.52;100287.72;4951065;28;20043;-75
2022/03/10 00:25:24;;;;;;;34.45;20.77;;;;;;;1.40;67.97;100290.31;4951328;28;20039;-76
2022/03/10 00:27:51;;;;;;;33.03;20.27;;;;;;;1.43;68.34;100287.72;4951652;28;20174;-75
2022/03/10 00:30:17;;;;;;;33.40;18.95;;;;;;;1.42;68.50;100289.44;4955130;28;20043;-76
2022/03/10 00:32:52;;;;;;;27.95;19.00;;;;;;;1.44;68.00;100298.09;4954498;28;20039;-76
2022/03/10 00:35:20;;;;;;;34.30;18.52;;;;;;;1.46;68.30;100298.94;4935824;28;20070;-75
2022/03/10 00:37:47;;;;;;;31.17;18.85;;;;;;;1.45;68.30;100299.84;4943082;28;20043;-75
2022/03/10 00:40:13;;;;;;;39.47;21.25;;;;;;;1.42;68.33;100293.75;4946554;28;20063;-76
2022/03/10 00:42:39;;;;;;;31.80;20.75;;;;;;;1.35;68.38;100292.91;4946882;28;20032;-76
2022/03/10 00:45:06;;;;;;;29.15;18.92;;;;;;;1.26;68.45;100304.22;4940002;28;20070;-76
2022/03/10 00:47:32;;;;;;;29.30;19.02;;;;;;;1.20;69.00;100304.22;4940308;28;20040;-76
2022/03/10 00:49:58;;;;;;;33.47;20.98;;;;;;;1.19;69.08;100301.66;4939997;28;20111;-75
2022/03/10 00:52:24;;;;;;;32.33;20.23;;;;;;;1.19;69.31;100310.28;4947449;28;20522;-75
2022/03/10 00:54:49;;;;;;;28.73;19.73;;;;;;;1.21;68.64;100313.75;4956615;28;20035;-75
2022/03/10 00:57:14;;;;;;;30.48;19.23;;;;;;;1.18;69.24;100310.28;4957293;28;20035;-75
2022/03/10 00:59:40;;;;;;;32.78;20.02;;;;;;;1.15;68.59;100308.56;4956686;28;20164;-75
2022/03/10 01:02:05;;;;;;;29.63;18.23;;;;;;;1.15;69.09;100307.69;4955398;28;20040;-75
2022/03/10 01:04:30;;;;;;;30.40;19.15;;;;;;;1.14;68.56;100304.25;4938761;28;20039;-75
2022/03/10 01:06:56;;;;;;;33.85;21.00;;;;;;;1.11;68.70;100308.56;4961431;28;20059;-76
2022/03/10 01:09:21;;;;;;;31.80;19.45;;;;;;;1.10;69.07;100312.03;4948791;28;20035;-75
2022/03/10 01:11:46;;;;;;;33.17;19.17;;;;;;;1.02;68.97;100299.94;4961640;28;20118;-75
2022/03/10 01:14:12;;;;;;;31.05;19.58;;;;;;;1.00;69.02;100296.47;4956102;28;20411;-75
2022/03/10 01:16:37;;;;;;;31.63;19.25;;;;;;;1.00;68.69;100299.06;4955233;28;20047;-76
2022/03/10 01:19:03;;;;;;;30.67;19.30;;;;;;;1.03;68.97;100298.19;4955251;28;20094;-75
2022/03/10 01:21:29;;;;;;;30.17;21.08;;;;;;;0.99;68.56;100304.28;4954397;28;20070;-75
2022/03/10 01:23:54;;;;;;;30.50;18.30;;;;;;;0.93;69.23;100297.34;4954654;28;20122;-75
2022/03/10 01:26:20;;;;;;;32.95;18.77;;;;;;;0.94;68.40;100295.66;4953590;28;20094;-74
2022/03/10 01:28:45;;;;;;;29.70;18.77;;;;;;;0.93;68.87;100294.75;4937228;29;20035;-75
2022/03/10 01:31:10;;;;;;;28.50;18.60;;;;;;;0.90;69.12;100305.16;4953506;28;20042;-76
2022/03/10 01:33:36;;;;;;;27.92;17.58;;;;;;;0.91;68.60;100293.03;4953252;28;20048;-76
2022/03/10 01:36:01;;;;;;;29.85;16.73;;;;;;;0.93;68.52;100302.53;4936357;28;20408;-76
2022/03/10 01:38:26;;;;;;;41.17;21.08;;;;;;;0.91;68.18;100296.53;4953360;28;20062;-76
2022/03/10 01:40:52;;;;;;;36.58;20.63;;;;;;;0.82;68.86;100299.97;4953402;28;20032;-76
2022/03/10 01:43:17;;;;;;;28.55;18.92;;;;;;;0.76;69.04;100293.91;4919785;28;20039;-75
2022/03/10 01:45:42;;;;;;;35.58;20.85;;;;;;;0.73;68.41;100296.53;4954177;28;20046;-75
2022/03/10 01:48:08;;;;;;;31.90;18.63;;;;;;;0.71;69.47;100293.06;4938096;28;20042;-75
2022/03/10 01:50:33;;;;;;;30.98;21.02;;;;;;;0.70;69.15;100294.81;4959644;28;20089;-75
2022/03/10 01:53:01;;;;;;;36.58;21.98;;;;;;;0.71;69.13;100295.66;4939317;28;20062;-76
2022/03/10 01:55:27;;;;;;;29.02;17.83;;;;;;;0.71;69.29;100285.28;4935992;28;20054;-75
2022/03/10 01:57:53;;;;;;;26.65;17.77;;;;;;;0.69;69.25;100294.78;4953409;28;20039;-75
2022/03/10 02:00:18;;;;;;;32.50;19.13;;;;;;;0.68;69.38;100288.75;4946959;28;20046;-74
2022/03/10 02:02:44;;;;;;;32.38;20.08;;;;;;;0.64;69.16;100287.03;4935379;28;20043;-75
2022/03/10 02:05:09;;;;;;;33.03;21.42;;;;;;;0.56;69.00;100287.00;4953674;28;20502;-75
2022/03/10 02:10:22;;;;;;;33.15;20.55;;;;;;;0.47;68.73;100286.16;4954530;28;20098;-75
2022/03/10 02:12:53;;;;;;;33.88;21.65;;;;;;;0.43;69.57;100288.75;4953270;28;20487;-75
2022/03/10 02:18:05;;;;;;;32.20;20.73;;;;;;;0.31;70.12;100275.78;4952893;28;20155;-75
2022/03/10 02:20:31;;;;;;;35.17;20.50;;;;;;;0.27;69.53;100275.78;4952305;28;20053;-74
2022/03/10 02:22:57;;;;;;;32.03;19.48;;;;;;;0.23;70.09;100279.25;4952305;28;20384;-75
2022/03/10 02:25:24;;;;;;;34.28;21.33;;;;;;;0.23;69.60;100277.53;4952018;28;20055;-76
2022/03/10 02:27:53;;;;;;;31.42;19.70;;;;;;;0.30;69.49;100275.81;4935127;28;20034;-76
2022/03/10 02:30:24;;;;;;;38.45;21.17;;;;;;;0.29;69.44;100282.69;4952407;28;20039;-73
2022/03/10 02:32:49;;;;;;;31.52;20.40;;;;;;;0.29;69.42;100284.44;4934864;28;20024;-76
2022/03/10 02:35:15;;;;;;;29.55;19.15;;;;;;;0.25;70.32;100277.50;4952707;28;20035;-74
2022/03/10 02:37:41;;;;;;;28.90;19.45;;;;;;;0.23;69.77;100279.25;4952970;28;20031;-76
2022/03/10 02:40:08;;;;;;;30.35;19.15;;;;;;;0.20;69.53;100273.19;4952528;28;20090;-74
2022/03/10 02:42:34;;;;;;;27.23;16.35;;;;;;;0.21;69.92;100277.50;4951976;28;20035;-75
2022/03/10 02:45:01;;;;;;;36.53;20.15;;;;;;;0.25;69.37;100285.28;4951887;28;20477;-75
2022/03/10 02:47:27;;;;;;;32.17;20.95;;;;;;;0.22;69.99;100270.59;4952183;28;20063;-75
2022/03/10 02:49:52;;;;;;;28.48;16.23;;;;;;;0.29;69.79;100274.06;4952102;28;20032;-76
2022/03/10 02:52:18;;;;;;;33.92;19.60;;;;;;;0.32;69.87;100272.34;4951678;28;20102;-77
2022/03/10 02:54:44;;;;;;;28.30;17.73;;;;;;;0.34;69.34;100277.50;4952145;28;20023;-75
2022/03/10 02:57:10;;;;;;;32.92;20.27;;;;;;;0.29;69.38;100276.66;4952629;28;20037;-75
2022/03/10 02:59:35;;;;;;;32.08;20.60;;;;;;;0.28;69.85;100273.19;4952034;28;20027;-75
2022/03/10 03:02:02;;;;;;;36.58;20.63;;;;;;;0.25;69.29;100280.09;4951392;28;20050;-75
2022/03/10 03:04:27;;;;;;;30.52;18.25;;;;;;;0.21;70.35;100280.09;4951726;28;20058;-75
2022/03/10 03:06:52;;;;;;;28.10;18.73;;;;;;;0.23;69.95;100276.66;4952131;28;20031;-75
2022/03/10 03:09:18;;;;;;;33.20;20.85;;;;;;;0.15;70.71;100276.66;4934895;28;20452;-75
2022/03/10 03:11:43;;;;;;;32.80;20.23;;;;;;;0.07;71.09;100273.16;4934205;28;20039;-75
2022/03/10 03:14:09;;;;;;;32.50;20.23;;;;;;;0.05;71.06;100275.78;4935773;29;20036;-75
2022/03/10 03:16:34;;;;;;;36.42;20.02;;;;;;;0.08;71.35;100270.59;4955001;28;20095;-76
2022/03/10 03:18:59;;;;;;;28.75;17.02;;;;;;;0.13;70.99;100278.38;4954874;28;20032;-75
2022/03/10 03:21:25;;;;;;;32.78;18.98;;;;;;;0.19;70.16;100273.19;4950959;28;20116;-75
2022/03/10 03:23:50;;;;;;;33.90;18.25;;;;;;;0.16;69.97;100279.22;4951825;28;20024;-75
2022/03/10 03:26:16;;;;;;;35.33;20.38;;;;;;;0.26;70.30;100272.31;4951842;28;20035;-74
2022/03/10 03:28:43;;;;;;;27.60;16.52;;;;;;;0.27;70.15;100276.66;4951737;28;20083;-74
2022/03/10 03:31:09;;;;;;;31.95;17.55;;;;;;;0.33;69.53;100275.78;4934101;29;20035;-75
2022/03/10 03:33:35;;;;;;;29.85;17.33;;;;;;;0.30;70.08;100278.41;4951689;28;20089;-74
2022/03/10 03:36:01;;;;;;;28.38;17.92;;;;;;;0.28;69.76;100280.13;4951145;28;20031;-74
2022/03/10 03:38:27;;;;;;;32.97;18.73;;;;;;;0.29;69.17;100274.06;4951599;28;20066;-75
2022/03/10 03:40:52;;;;;;;25.95;16.83;;;;;;;0.30;69.73;100278.41;4951390;28;20031;-74
2022/03/10 03:43:18;;;;;;;30.02;19.63;;;;;;;0.32;69.66;100282.72;4951311;28;20058;-76
2022/03/10 03:45:43;;;;;;;29.77;17.48;;;;;;;0.27;69.95;100281.84;4951667;28;20046;-75
2022/03/10 03:48:08;;;;;;;31.17;19.10;;;;;;;0.26;69.88;100279.25;4951879;28;20794;-76
2022/03/10 03:50:34;;;;;;;31.05;17.33;;;;;;;0.25;69.29;100278.38;4950617;28;20038;-74
2022/03/10 03:52:59;;;;;;;29.58;19.35;;;;;;;0.27;68.83;100276.66;4950892;28;20115;-75
2022/03/10 03:55:25;;;;;;;28.92;17.90;;;;;;;0.27;69.59;100286.16;4950962;28;20039;-76
2022/03/10 03:57:50;;;;;;;33.35;20.27;;;;;;;0.22;69.04;100273.19;4933647;28;20043;-76
2022/03/10 04:00:16;;;;;;;28.45;16.77;;;;;;;0.20;69.96;100275.78;4950952;28;20085;-76
2022/03/10 04:02:41;;;;;;;36.28;21.90;;;;;;;0.21;69.03;100279.25;4951219;28;20031;-76
2022/03/10 04:05:08;;;;;;;35.40;18.98;;;;;;;0.12;70.29;100277.50;4951176;28;20031;-76
2022/03/10 04:07:34;;;;;;;28.70;19.17;;;;;;;0.15;70.06;100276.66;4951166;28;20035;-76
2022/03/10 04:10:00;;;;;;;35.78;18.80;;;;;;;0.18;70.02;100284.44;4951457;28;20513;-75
2022/03/10 04:12:26;;;;;;;28.33;16.25;;;;;;;0.15;70.09;100284.44;4951610;28;20043;-75
2022/03/10 04:14:51;;;;;;;35.28;21.23;;;;;;;0.17;70.17;100275.78;4951241;28;20035;-75
2022/03/10 04:17:16;;;;;;;30.35;17.33;;;;;;;0.21;69.34;100282.69;4951366;28;20074;-75
2022/03/10 04:19:42;;;;;;;29.30;17.05;;;;;;;0.17;70.13;100280.97;4934611;29;20049;-75
2022/03/10 04:22:10;;;;;;;29.35;15.93;;;;;;;0.26;69.80;100281.84;4950445;28;20027;-75
2022/03/10 04:24:35;;;;;;;30.88;17.00;;;;;;;0.29;69.00;100287.03;4951656;28;20099;-76
2022/03/10 04:27:01;;;;;;;26.35;15.90;;;;;;;0.28;69.33;100282.72;4951918;28;20059;-76
2022/03/10 04:29:26;;;;;;;31.27;17.77;;;;;;;0.31;69.73;100280.13;4951689;28;20054;-75
2022/03/10 04:31:52;;;;;;;32.90;18.02;;;;;;;0.30;69.15;100288.78;4950723;28;20061;-76
2022/03/10 04:34:17;;;;;;;24.17;15.55;;;;;;;0.32;69.44;100276.66;4951465;28;20122;-76
2022/03/10 04:36:42;;;;;;;33.70;18.80;;;;;;;0.31;69.48;100285.31;4935185;29;20043;-74
2022/03/10 04:39:08;;;;;;;26.38;17.40;;;;;;;0.32;69.65;100294.78;4935762;29;20066;-75
2022/03/10 04:41:36;;;;;;;33.05;20.05;;;;;;;0.30;69.68;100302.59;4954575;28;20110;-75
2022/03/10 04:44:01;;;;;;;35.90;18.40;;;;;;;0.27;69.73;100304.31;4942009;28;20407;-75
2022/03/10 04:46:27;;;;;;;30.90;20.10;;;;;;;0.25;69.85;100298.25;4940611;28;20121;-76
2022/03/10 04:48:52;;;;;;;37.65;19.83;;;;;;;0.25;69.62;100301.72;4963225;28;20028;-76
2022/03/10 04:51:18;;;;;;;29.85;18.25;;;;;;;0.26;70.04;100306.03;4960006;28;20067;-76
2022/03/10 04:53:43;;;;;;;33.40;17.95;;;;;;;0.24;69.71;100306.91;4957575;28;20376;-76
2022/03/10 04:56:09;;;;;;;31.75;17.52;;;;;;;0.27;69.79;100304.31;4957887;28;20062;-76
2022/03/10 04:58:34;;;;;;;35.13;21.55;;;;;;;0.29;69.85;100300.00;4939131;28;20503;-76
2022/03/10 05:00:59;;;;;;;31.17;18.15;;;;;;;0.32;69.85;100300.88;4954528;28;20027;-75
2022/03/10 05:03:25;;;;;;;33.13;18.48;;;;;;;0.28;69.78;100308.66;4955110;28;20435;-75
2022/03/10 05:05:50;;;;;;;29.85;17.80;;;;;;;0.25;70.19;100300.84;4955794;28;20046;-76
2022/03/10 05:08:15;;;;;;;27.15;16.38;;;;;;;0.24;69.61;100302.56;4938253;28;20035;-75
2022/03/10 05:10:41;;;;;;;32.45;18.25;;;;;;;0.26;69.61;100300.00;4957078;28;20031;-76
2022/03/10 05:13:07;;;;;;;33.60;21.40;;;;;;;0.29;70.17;100298.25;4961302;28;20038;-76
2022/03/10 05:15:33;;;;;;;32.95;18.23;;;;;;;0.26;70.29;100302.59;4963276;28;22102;-76
2022/03/10 05:18:00;;;;;;;28.70;16.95;;;;;;;0.26;70.09;100295.66;4961887;28;20039;-76
2022/03/10 05:20:26;;;;;;;26.20;15.10;;;;;;;0.23;70.73;100306.03;4959952;28;20074;-75
2022/03/10 05:22:57;;;;;;;31.55;18.30;;;;;;;0.27;69.72;100306.91;4956309;28;20495;-76
2022/03/10 05:25:26;;;;;;;31.67;17.75;;;;;;;0.32;69.94;100310.34;4955045;28;20039;-76
2022/03/10 05:27:52;;;;;;;32.08;16.85;;;;;;;0.32;69.20;100311.25;4937379;28;20122;-76
2022/03/10 05:30:19;;;;;;;30.50;17.95;;;;;;;0.27;69.99;100310.38;4956414;28;20516;-76
2022/03/10 05:32:46;;;;;;;31.50;16.80;;;;;;;0.27;69.74;100312.97;4955849;28;20404;-75
2022/03/10 05:35:14;;;;;;;30.33;18.08;;;;;;;0.30;69.65;100301.75;4954642;28;20431;-75
2022/03/10 05:37:40;;;;;;;26.45;15.48;;;;;;;0.30;70.04;100307.78;4921215;29;20039;-75
2022/03/10 05:40:08;;;;;;;26.25;17.23;;;;;;;0.30;69.45;100307.78;4953367;28;20086;-75
2022/03/10 05:42:33;;;;;;;35.13;18.67;;;;;;;0.29;70.23;100319.00;4953141;28;20085;-75
2022/03/10 05:44:59;;;;;;;28.13;14.60;;;;;;;0.34;69.89;100321.59;4953179;28;20451;-75
2022/03/10 05:47:24;;;;;;;27.73;16.52;;;;;;;0.39;69.66;100323.34;4953109;28;20071;-76
2022/03/10 05:49:49;;;;;;;26.67;16.35;;;;;;;0.41;69.67;100323.34;4953409;28;20032;-76
2022/03/10 05:52:15;;;;;;;29.30;17.85;;;;;;;0.39;69.60;100317.28;4952341;28;20055;-76
2022/03/10 05:54:41;;;;;;;29.52;16.45;;;;;;;0.34;69.81;100321.59;4936811;29;20197;-75
2022/03/10 05:57:07;;;;;;;23.45;14.23;;;;;;;0.34;69.76;100322.47;4953307;28;20577;-75
2022/03/10 05:59:32;;;;;;;33.85;18.83;;;;;;;0.45;69.62;100322.50;4953197;28;20124;-75
2022/03/10 06:01:58;;;;;;;37.53;20.40;;;;;;;0.47;69.63;100327.66;4952820;28;20483;-75
2022/03/10 06:04:23;;;;;;;30.83;19.13;;;;;;;0.52;68.57;100321.63;4953194;28;20059;-75
2022/03/10 06:06:48;;;;;;;36.30;16.55;;;;;;;0.52;69.67;100324.22;4953243;28;20023;-75
2022/03/10 06:09:14;;;;;;;28.58;16.90;;;;;;;0.54;69.04;100319.91;4935943;28;20035;-75
2022/03/10 06:11:39;;;;;;;32.05;17.35;;;;;;;0.54;68.75;100326.78;4936195;29;20046;-75
2022/03/10 06:14:04;;;;;;;29.17;17.20;;;;;;;0.56;68.85;100330.25;4953327;28;20043;-74
2022/03/10 06:16:30;;;;;;;37.88;20.92;;;;;;;0.52;68.95;100324.22;4952961;28;20039;-75
2022/03/10 06:18:55;;;;;;;32.05;17.83;;;;;;;0.48;69.25;100325.06;4952832;28;20059;-74
2022/03/10 06:21:21;;;;;;;30.70;18.00;;;;;;;0.49;69.69;100319.00;4935763;28;20407;-77
2022/03/10 06:23:47;;;;;;;27.13;15.77;;;;;;;0.55;69.98;100319.03;4953228;28;20031;-76
2022/03/10 06:26:13;;;;;;;30.52;17.77;;;;;;;0.61;68.92;100316.41;4954532;28;20043;-76
2022/03/10 06:28:38;;;;;;;29.33;17.80;;;;;;;0.57;69.64;100313.84;4955309;28;20054;-78
2022/03/10 06:31:04;;;;;;;24.58;15.25;;;;;;;0.60;69.08;100313.84;4945327;28;20099;-75
2022/03/10 06:33:30;;;;;;;30.40;16.08;;;;;;;0.69;69.16;100316.44;4961589;28;20035;-77
2022/03/10 06:35:55;;;;;;;28.15;16.15;;;;;;;0.67;68.79;100320.75;4957027;28;20155;-77
2022/03/10 06:38:21;;;;;;;30.00;16.83;;;;;;;0.71;69.08;100319.88;4944488;28;20499;-77
2022/03/10 06:40:46;;;;;;;26.48;15.45;;;;;;;0.76;68.44;100314.69;4947883;28;20031;-76
2022/03/10 06:43:11;;;;;;;27.17;16.52;;;;;;;0.80;68.58;100314.69;4954744;28;20067;-77
2022/03/10 06:45:37;;;;;;;31.52;16.70;;;;;;;0.91;68.53;100321.59;4943994;28;20066;-77
2022/03/10 06:48:02;;;;;;;27.48;16.02;;;;;;;1.02;67.65;100320.72;4937838;28;20039;-76
2022/03/10 06:50:28;;;;;;;32.65;17.55;;;;;;;1.18;67.91;100325.88;4936769;28;20500;-76
2022/03/10 06:52:56;;;;;;;23.00;14.98;;;;;;;1.42;67.16;100320.59;4941727;28;20449;-76
2022/03/10 06:55:23;;;;;;;24.42;14.55;;;;;;;1.67;66.91;100326.59;4936779;28;20038;-77
2022/03/10 06:57:48;;;;;;;27.02;17.95;;;;;;;2.12;65.15;100323.75;4937784;28;20043;-77
2022/03/10 07:00:14;;;;;;;30.55;18.10;;;;;;;2.58;63.51;100321.69;4916245;28;20554;-77
2022/03/10 07:02:40;;;;;;;24.35;15.10;;;;;;;2.84;63.55;100324.94;4935265;28;20046;-77
2022/03/10 07:05:07;;;;;;;26.83;16.67;;;;;;;3.02;62.44;100314.34;4955762;28;20105;-78
2022/03/10 07:07:32;;;;;;;30.88;19.48;;;;;;;3.11;62.14;100324.69;4959230;28;20081;-78
2022/03/10 07:09:58;;;;;;;31.08;17.33;;;;;;;3.25;61.94;100321.06;4945968;28;20039;-78
2022/03/10 07:12:26;;;;;;;29.92;16.13;;;;;;;3.42;61.91;100321.72;4956723;28;20066;-75
2022/03/10 07:14:51;;;;;;;34.33;17.27;;;;;;;3.45;61.67;100324.31;4942254;28;20039;-75
2022/03/10 07:17:16;;;;;;;33.88;19.50;;;;;;;3.42;61.63;100319.13;4950604;28;20095;-77
2022/03/10 07:19:42;;;;;;;30.13;16.45;;;;;;;3.34;62.21;100323.56;4940628;28;20035;-77
2022/03/10 07:22:07;;;;;;;30.58;18.08;;;;;;;3.40;62.38;100326.97;4954591;28;20464;-76
2022/03/10 07:24:33;;;;;;;32.63;19.05;;;;;;;3.42;62.23;100329.56;4949857;28;20031;-76
2022/03/10 07:26:58;;;;;;;29.88;20.17;;;;;;;3.49;62.80;100332.97;4927294;28;20027;-76
2022/03/10 07:29:24;;;;;;;28.05;17.52;;;;;;;3.48;63.03;100332.09;4932617;28;20050;-77
2022/03/10 07:31:49;;;;;;;31.77;19.45;;;;;;;3.54;63.13;100332.03;4932799;28;20059;-77
2022/03/10 07:34:15;;;;;;;27.67;15.52;;;;;;;3.65;62.64;100331.91;4970734;28;20023;-76
2022/03/10 07:36:42;;;;;;;41.05;18.58;;;;;;;3.79;62.53;100334.31;4944681;29;20031;-77
2022/03/10 07:39:07;;;;;;;29.25;16.98;;;;;;;3.85;62.53;100329.91;4942113;28;20046;-77
2022/03/10 07:41:33;;;;;;;30.60;19.35;;;;;;;3.94;62.76;100335.88;4953154;28;20042;-77
2022/03/10 07:43:59;;;;;;;28.70;18.58;;;;;;;4.05;62.35;100342.69;4955714;28;20039;-80
2022/03/10 07:46:24;;;;;;;29.58;16.77;;;;;;;4.21;62.01;100332.03;4976554;28;20046;-79
2022/03/10 07:48:50;;;;;;;25.15;15.30;;;;;;;4.36;61.76;100330.97;4953365;28;20047;-77
2022/03/10 07:51:17;;;;;;;27.27;17.80;;;;;;;4.50;60.85;100334.19;4976672;28;20043;-77
2022/03/10 07:53:42;;;;;;;27.00;17.38;;;;;;;4.60;61.23;100335.78;4955504;28;20039;-78
2022/03/10 07:56:08;;;;;;;26.50;17.65;;;;;;;4.69;61.66;100333.03;4957410;28;20043;-78
2022/03/10 07:58:33;;;;;;;29.58;17.73;;;;;;;4.84;61.10;100331.91;4962238;28;20098;-78
2022/03/10 08:00:59;;;;;;;27.85;17.17;;;;;;;5.00;61.15;100334.28;4955982;28;20039;-78
2022/03/10 08:03:25;;;;;;;28.33;18.63;;;;;;;5.17;59.85;100334.84;4957589;28;20122;-78
2022/03/10 08:05:51;;;;;;;26.67;17.75;;;;;;;5.36;59.31;100333.56;4934937;28;20170;-77
2022/03/10 08:08:17;;;;;;;27.67;18.23;;;;;;;5.51;58.01;100339.41;4949688;28;20118;-77
2022/03/10 08:10:43;;;;;;;29.75;18.45;;;;;;;5.67;58.11;100332.97;4932677;29;20035;-78
2022/03/10 08:13:08;;;;;;;33.70;20.27;;;;;;;5.86;56.81;100337.81;4950323;28;20085;-78
2022/03/10 08:15:33;;;;;;;25.75;15.80;;;;;;;6.05;56.67;100341.81;4934710;28;20036;-78
2022/03/10 08:18:00;;;;;;;37.10;19.60;;;;;;;6.27;56.87;100339.56;4955680;28;20043;-79
2022/03/10 08:20:25;;;;;;;40.33;19.33;;;;;;;6.50;56.23;100332.94;4952885;28;20035;-78
2022/03/10 08:22:51;;;;;;;29.83;16.90;;;;;;;6.72;55.31;100328.03;4952171;28;20035;-76
2022/03/10 08:25:17;;;;;;;28.33;17.25;;;;;;;6.90;54.53;100331.97;4952909;28;20384;-76
2022/03/10 08:27:44;;;;;;;36.25;19.52;;;;;;;7.10;54.29;100327.94;4949156;28;20059;-78
2022/03/10 08:30:13;;;;;;;48.85;20.17;;;;;;;7.37;54.28;100328.09;4952339;28;20023;-76
2022/03/10 08:32:39;;;;;;;46.60;19.75;;;;;;;7.66;53.86;100326.44;4942599;29;20038;-77
2022/03/10 08:35:05;;;;;;;36.17;17.95;;;;;;;7.89;53.86;100324.00;4960247;28;20110;-78
2022/03/10 08:37:31;;;;;;;38.08;19.30;;;;;;;8.25;51.76;100320.31;4942085;28;20118;-72
2022/03/10 08:39:56;;;;;;;40.03;21.23;;;;;;;8.86;50.13;100317.47;4944436;28;20038;-72
2022/03/10 08:42:21;;;;;;;41.97;19.90;;;;;;;9.86;47.86;100312.16;4954495;28;20058;-73
2022/03/10 08:44:47;;;;;;;30.92;17.75;;;;;;;11.12;45.53;100310.63;4954620;28;20133;-72
2022/03/10 08:47:15;;;;;;;41.22;18.88;;;;;;;12.43;39.87;100299.41;4960613;28;20030;-78
2022/03/10 08:49:40;;;;;;;43.88;21.27;;;;;;;13.47;40.00;100296.75;4939659;28;20590;-75
2022/03/10 08:52:06;;;;;;;42.75;20.73;;;;;;;14.35;37.30;100295.47;4953152;28;20061;-75
2022/03/10 08:54:32;;;;;;;34.50;20.42;;;;;;;14.76;38.37;100288.75;4938707;28;20242;-74
2022/03/10 08:56:57;;;;;;;40.70;20.52;;;;;;;15.42;35.32;100290.13;4947565;28;20039;-74
2022/03/10 08:59:22;;;;;;;19.92;15.50;;;;;;;16.20;33.77;100287.03;4953189;28;20123;-77
2022/03/10 09:01:48;;;;;;;24.63;15.35;;;;;;;16.99;32.79;100291.59;4948617;29;20106;-75
2022/03/10 09:04:13;;;;;;;25.67;16.17;;;;;;;17.51;31.57;100287.13;4948846;29;20065;-75
2022/03/10 09:06:38;;;;;;;20.42;15.52;;;;;;;18.09;30.71;100291.03;4916186;29;20062;-77
2022/03/10 09:09:04;;;;;;;22.05;15.73;;;;;;;18.78;29.63;100296.63;4949325;29;20532;-75
2022/03/10 09:11:30;;;;;;;20.80;14.68;;;;;;;19.34;29.23;100282.53;4948152;28;20039;-76
2022/03/10 09:13:55;;;;;;;22.00;14.85;;;;;;;19.73;28.16;100277.72;4947927;29;20039;-75
2022/03/10 09:16:22;;;;;;;22.48;15.75;;;;;;;20.38;27.29;100279.56;4925951;29;20036;-74
2022/03/10 09:18:51;;;;;;;27.67;16.25;;;;;;;20.89;26.00;100274.53;4950403;29;20114;-75
2022/03/10 09:21:17;;;;;;;18.55;14.57;;;;;;;21.26;25.59;100269.53;4948919;28;20023;-75
2022/03/10 09:23:43;;;;;;;18.60;13.80;;;;;;;21.29;25.40;100271.97;4935096;29;20046;-75
2022/03/10 09:26:08;;;;;;;20.38;14.68;;;;;;;21.05;26.01;100272.25;4954111;29;20064;-74
2022/03/10 09:28:34;;;;;;;18.73;14.02;;;;;;;20.83;26.26;100262.50;4953975;28;20027;-75
2022/03/10 09:30:59;;;;;;;14.18;12.02;;;;;;;21.29;25.85;100260.38;4936365;29;20042;-74
2022/03/10 09:33:25;;;;;;;19.00;13.43;;;;;;;21.80;25.61;100265.72;4937933;29;20078;-75
2022/03/10 09:35:51;;;;;;;21.83;15.48;;;;;;;21.59;25.50;100259.59;4954846;29;20027;-75
2022/03/10 09:38:17;;;;;;;17.88;12.63;;;;;;;21.86;25.36;100265.19;4952783;29;20447;-73
2022/03/10 09:40:42;;;;;;;17.27;13.32;;;;;;;22.38;24.48;100259.69;4920394;29;20061;-75
2022/03/10 09:43:09;;;;;;;14.63;12.20;;;;;;;22.98;24.08;100259.53;4953381;29;20046;-74
2022/03/10 09:45:36;;;;;;;16.25;13.02;;;;;;;23.14;23.66;100253.59;4954084;28;20081;-75
2022/03/10 09:48:02;;;;;;;17.85;14.15;;;;;;;23.24;23.07;100251.72;4954211;29;20031;-74
2022/03/10 09:50:27;;;;;;;15.40;12.85;;;;;;;23.60;22.44;100249.16;4936290;29;20560;-75
2022/03/10 09:52:53;;;;;;;18.10;13.45;;;;;;;23.87;22.28;100253.75;4953754;29;20031;-75
2022/03/10 09:55:18;;;;;;;16.33;13.50;;;;;;;23.53;22.26;100248.09;4954226;29;20395;-74
2022/03/10 09:57:45;;;;;;;18.55;13.48;;;;;;;23.67;22.19;100246.72;4954682;29;20041;-76
2022/03/10 10:00:14;;;;;;;18.50;13.57;;;;;;;23.75;22.00;100247.72;4954322;29;20097;-74
2022/03/10 10:02:40;;;;;;;23.73;14.02;;;;;;;23.92;21.62;100247.91;4954835;29;20019;-76
2022/03/10 10:05:25;;;;;;;17.90;13.35;;;;;;;24.16;21.59;100245.47;4947214;28;20050;-76
2022/03/10 10:08:01;;;;;;;16.50;13.00;;;;;;;24.24;21.20;100238.50;4964906;29;20058;-75
2022/03/10 10:10:28;;;;;;;14.02;11.38;;;;;;;24.35;21.82;100236.44;4956083;29;20031;-76
2022/03/10 10:12:53;;;;;;;15.93;12.23;;;;;;;23.78;21.73;100246.59;4936099;29;20023;-75
2022/03/10 10:15:18;;;;;;;18.05;12.13;;;;;;;24.11;21.30;100242.41;4953794;29;20085;-75
2022/03/10 10:17:44;;;;;;;14.95;12.40;;;;;;;24.01;21.34;100236.22;4936822;29;20038;-75
2022/03/10 10:20:10;;;;;;;16.20;13.40;;;;;;;23.60;21.77;100240.25;4953138;29;20031;-74
2022/03/10 10:22:35;;;;;;;20.85;12.73;;;;;;;23.73;21.32;100235.41;4935773;29;20506;-75
2022/03/10 10:25:05;;;;;;;16.40;11.50;;;;;;;23.94;20.94;100241.38;4952803;29;20027;-76
2022/03/10 10:27:35;;;;;;;19.55;11.88;;;;;;;24.33;21.29;100234.88;4953408;28;20479;-77
2022/03/10 10:30:08;;;;;;;15.77;12.77;;;;;;;24.18;20.42;100232.72;4953737;29;20482;-76
2022/03/10 10:32:50;;;;;;;12.70;10.25;;;;;;;24.07;21.26;100226.69;4945374;28;20034;-74
2022/03/10 10:35:23;;;;;;;13.85;10.60;;;;;;;24.30;19.72;100222.56;4943324;28;20035;-75
2022/03/10 10:37:54;;;;;;;16.63;11.90;;;;;;;24.31;19.71;100213.47;4947342;28;20030;-76
2022/03/10 10:40:26;;;;;;;16.67;11.23;;;;;;;24.10;19.72;100224.56;4945304;28;20027;-77
2022/03/10 10:43:02;;;;;;;17.77;12.60;;;;;;;23.74;20.25;100229.84;4946419;29;20035;-75
2022/03/10 10:45:30;;;;;;;15.98;12.13;;;;;;;23.60;20.73;100214.16;4929271;29;20600;-77
2022/03/10 10:48:08;;;;;;;14.52;12.60;;;;;;;23.02;21.43;100220.63;4946833;29;20054;-74
2022/03/10 10:50:36;;;;;;;15.60;11.10;;;;;;;22.61;21.44;100216.41;4946162;29;20027;-75
2022/03/10 10:53:03;;;;;;;15.60;11.25;;;;;;;21.76;23.01;100215.16;4946162;29;20114;-75
2022/03/10 10:55:39;;;;;;;16.13;10.68;;;;;;;21.50;23.26;100215.63;4946691;29;20031;-74
2022/03/10 10:58:09;;;;;;;15.90;10.25;;;;;;;20.82;22.12;100203.66;4946440;29;20031;-76
2022/03/10 11:00:46;;;;;;;12.95;9.18;;;;;;;20.50;22.13;100200.03;4948146;29;20037;-77
2022/03/10 11:03:34;;;;;;;16.40;9.57;;;;;;;20.14;22.72;100203.97;4949595;29;20058;-76
2022/03/10 11:05:59;;;;;;;12.07;9.45;;;;;;;19.39;23.31;100196.63;4948117;28;20808;-76
2022/03/10 11:08:28;;;;;;;12.45;9.02;;;;;;;19.09;23.51;100204.25;4930927;29;20039;-76
2022/03/10 11:10:54;;;;;;;12.70;9.30;;;;;;;18.71;23.61;100212.56;4950310;28;20031;-75
2022/03/10 11:13:19;;;;;;;11.30;8.90;;;;;;;18.33;24.53;100202.09;4933813;29;20035;-75
2022/03/10 11:15:47;;;;;;;11.70;9.07;;;;;;;18.19;24.84;100212.00;4935209;29;20031;-74